Aviation Digital Data Service (ADDS)

Output produced by METARs form (1359 UTC 25 November 2020)
found at http://www.aviationweather.gov/metar/data/
 
METAR text: KAMW 251353Z AUTO 01010KT 10SM OVC009 03/01 A2985 RMK AO2 SLP110 T00280006
Conditions at: KAMW (AMES , IA, US) observed 1353 UTC 25 November 2020
Temperature: 2.8°C (37°F)
Dewpoint: 0.6°C (33°F) [RH = 85%]
Pressure (altimeter): 29.85 inches Hg (1010.9 mb)
[Sea-level pressure: 1011.0 mb]
Winds: from the N (10 degrees) at 12 MPH (10 knots; 5.1 m/s)
Visibility: 10 or more miles (16+ km)
Ceiling: 900 feet AGL
Clouds: overcast cloud deck at 900 feet AGL
Weather: automated observation with no human augmentation;
there may or may not be significant weather present at this time